Time;durP1;ratioP1;P1;durP2;ratioP2;P2;SDS_P1;SDS_P2;PMS_P1;PMS_P2;Temp;Humidity;BMP_temperature;BMP_pressure;BME280_temperature;BME280_humidity;BME280_pressure;Samples;Min_cycle;Max_cycle;Signal;HPM_P1;HPM_P2
2022/12/23 09:00:50;;;;;;;38.10;24.38;;;;;;;4.63;67.50;93238.16;5053921;27;2223251;-34
2022/12/23 09:03:15;;;;;;;42.35;22.10;;;;;;;4.62;67.94;93241.44;5108241;28;20066;-35
2022/12/23 09:05:41;;;;;;;50.28;29.02;;;;;;;4.63;67.77;93242.19;5108275;28;20415;-35
2022/12/23 09:08:07;;;;;;;49.97;25.85;;;;;;;4.72;68.32;93241.81;5108201;28;20507;-35
2022/12/23 09:10:33;;;;;;;42.40;22.33;;;;;;;4.85;68.57;93241.91;5108188;28;20104;-34
2022/12/23 09:12:59;;;;;;;42.17;25.30;;;;;;;5.01;68.32;93238.94;5107830;28;20056;-35
2022/12/23 09:15:24;;;;;;;54.33;28.45;;;;;;;5.22;68.22;93234.41;5107987;28;20066;-34
2022/12/23 09:17:49;;;;;;;41.28;24.20;;;;;;;5.42;67.16;93233.13;5108032;28;20027;-34
2022/12/23 09:20:15;;;;;;;41.90;22.00;;;;;;;5.59;66.76;93230.88;5107859;28;20411;-34
2022/12/23 09:22:40;;;;;;;31.30;17.70;;;;;;;5.70;65.26;93232.69;5107641;28;20484;-35
2022/12/23 09:25:06;;;;;;;31.92;18.05;;;;;;;5.84;64.67;93237.00;5107519;28;20035;-34
2022/12/23 09:27:32;;;;;;;27.83;17.15;;;;;;;6.02;64.56;93239.66;5107522;28;20031;-35
2022/12/23 09:29:57;;;;;;;30.23;17.08;;;;;;;6.37;63.82;93235.81;5107437;28;20019;-35
2022/12/23 09:32:22;;;;;;;61.80;22.70;;;;;;;6.77;62.39;93228.31;5107408;28;20152;-34
2022/12/23 09:34:48;;;;;;;35.95;19.83;;;;;;;6.98;60.71;93231.88;5107414;28;20024;-35
2022/12/23 09:37:15;;;;;;;33.80;19.45;;;;;;;7.30;60.26;93237.91;5107276;28;20073;-35
2022/12/23 09:39:41;;;;;;;39.67;23.08;;;;;;;8.30;58.12;93232.81;5107569;28;20028;-35
2022/12/23 09:42:19;;;;;;;35.65;19.25;;;;;;;9.70;53.74;93225.59;5107549;28;20569;-35
2022/12/23 09:45:02;;;;;;;36.08;19.00;;;;;;;11.30;49.36;93230.44;5107430;28;20032;-35
2022/12/23 09:47:29;;;;;;;30.50;19.13;;;;;;;12.73;45.15;93223.97;5107355;28;20114;-35
2022/12/23 09:50:01;;;;;;;26.63;16.35;;;;;;;13.04;41.17;93226.47;5107102;28;20494;-35
2022/12/23 09:52:36;;;;;;;25.75;17.60;;;;;;;13.33;41.11;93233.72;5107471;28;20034;-35
2022/12/23 09:55:01;;;;;;;27.98;16.65;;;;;;;12.32;40.98;93226.75;5107019;28;20512;-35
2022/12/23 09:57:59;;;;;;;38.08;23.10;;;;;;;12.29;42.27;93231.38;5107280;28;20036;-35
2022/12/23 10:00:29;;;;;;;30.02;19.73;;;;;;;12.55;43.46;93230.78;5084921;28;20040;-35
2022/12/23 10:03:16;;;;;;;27.92;17.50;;;;;;;12.65;42.67;93222.56;5085608;28;20419;-35
2022/12/23 10:06:19;;;;;;;25.42;17.48;;;;;;;12.77;41.35;93223.59;5086575;28;20035;-35
2022/12/23 10:08:46;;;;;;;25.65;16.80;;;;;;;12.58;43.42;93201.22;5085107;28;20051;-35
2022/12/23 10:11:12;;;;;;;23.50;15.30;;;;;;;12.90;43.07;93214.97;5077615;28;20032;-35
2022/12/23 10:13:41;;;;;;;23.95;15.52;;;;;;;12.79;43.57;93218.94;5072892;28;20473;-35
2022/12/23 10:16:31;;;;;;;22.83;14.63;;;;;;;12.59;43.59;93222.06;5071666;28;20028;-35
2022/12/23 10:19:05;;;;;;;61.67;33.20;;;;;;;12.15;44.38;93219.84;5072080;28;20039;-35
2022/12/23 10:21:40;;;;;;;30.17;19.20;;;;;;;12.00;44.27;93210.91;5073124;28;20063;-35
2022/12/23 10:24:27;;;;;;;21.85;15.30;;;;;;;11.70;44.32;93211.84;5073074;28;20141;-35
2022/12/23 10:26:59;;;;;;;37.08;21.40;;;;;;;11.36;46.04;93206.84;5042163;28;20553;-35
2022/12/23 10:29:28;;;;;;;24.92;16.92;;;;;;;11.06;46.92;93208.97;5065707;28;20472;-35
2022/12/23 10:32:02;;;;;;;21.40;13.52;;;;;;;10.71;47.15;93207.22;5071673;28;20031;-35
2022/12/23 10:34:37;;;;;;;21.40;12.55;;;;;;;10.23;47.00;93206.34;5072616;28;20044;-34
2022/12/23 10:37:17;;;;;;;20.83;12.82;;;;;;;10.02;48.63;93205.78;5072639;28;20481;-35
2022/12/23 10:39:56;;;;;;;20.15;13.13;;;;;;;9.87;48.42;93201.00;5071296;28;20025;-35
2022/12/23 10:42:29;;;;;;;22.33;12.93;;;;;;;9.58;49.09;93180.34;5072451;28;20029;-35
2022/12/23 10:44:58;;;;;;;25.60;16.15;;;;;;;9.42;50.47;93207.13;5072518;28;20032;-35
2022/12/23 10:48:02;;;;;;;25.95;15.88;;;;;;;9.35;51.12;93209.88;5072585;28;20440;-35
2022/12/23 10:50:51;;;;;;;17.85;12.50;;;;;;;9.30;50.46;93202.50;5071127;28;20489;-35
2022/12/23 10:53:40;;;;;;;22.13;14.45;;;;;;;9.10;51.90;93195.84;5071009;28;20412;-34
2022/12/23 10:56:06;;;;;;;20.88;14.70;;;;;;;9.10;52.24;93195.84;5071302;28;20056;-35
2022/12/23 10:58:34;;;;;;;27.05;14.50;;;;;;;9.12;53.17;93199.50;5070902;28;20059;-35
2022/12/23 11:01:03;;;;;;;19.87;14.07;;;;;;;9.13;53.36;93200.25;5070762;28;20084;-35
2022/12/23 11:03:41;;;;;;;21.60;13.35;;;;;;;9.14;53.63;93196.22;5070848;28;20665;-35
2022/12/23 11:06:08;;;;;;;23.98;15.88;;;;;;;9.17;54.02;93195.13;5070796;28;20028;-35
2022/12/23 11:08:36;;;;;;;23.75;14.95;;;;;;;9.04;52.97;93189.75;5071834;28;20029;-35
2022/12/23 11:11:01;;;;;;;23.10;15.15;;;;;;;8.93;53.29;93190.81;5071029;28;20028;-35
2022/12/23 11:13:39;;;;;;;25.02;15.27;;;;;;;8.93;53.48;93192.81;5071747;28;20043;-35
2022/12/23 11:16:23;;;;;;;21.17;13.45;;;;;;;8.76;53.24;93184.31;5071959;28;20112;-35
2022/12/23 11:19:04;;;;;;;20.83;13.35;;;;;;;8.38;54.78;93179.31;5071585;28;20037;-35
2022/12/23 11:21:32;;;;;;;18.25;13.90;;;;;;;8.37;55.84;93185.38;5071830;28;20028;-35
2022/12/23 11:24:17;;;;;;;23.02;14.77;;;;;;;8.39;56.90;93185.56;5070892;28;20097;-35
2022/12/23 11:26:48;;;;;;;21.75;13.75;;;;;;;8.39;56.30;93194.56;5067498;28;20029;-34
2022/12/23 11:29:27;;;;;;;20.88;12.95;;;;;;;8.37;55.88;93186.13;5071796;28;20488;-35
2022/12/23 11:31:53;;;;;;;26.60;14.15;;;;;;;8.35;56.17;93182.44;5050659;28;20052;-34
2022/12/23 11:34:21;;;;;;;28.83;15.55;;;;;;;8.38;56.45;93178.63;5051767;28;20457;-35
2022/12/23 11:37:00;;;;;;;26.55;14.18;;;;;;;8.36;55.72;93172.88;5051313;28;20025;-35
2022/12/23 11:39:27;;;;;;;23.85;15.20;;;;;;;8.30;56.38;93172.31;5051301;28;20135;-34
2022/12/23 11:42:01;;;;;;;23.38;15.30;;;;;;;8.39;56.85;93174.56;5050350;28;20451;-35
2022/12/23 11:44:38;;;;;;;26.75;17.00;;;;;;;8.52;56.69;93170.97;5050118;28;20032;-35
2022/12/23 11:47:29;;;;;;;28.75;16.92;;;;;;;8.64;57.14;93174.91;5050372;28;20033;-34
2022/12/23 11:50:00;;;;;;;28.10;15.77;;;;;;;8.67;56.06;93182.06;5040810;28;20039;-35
2022/12/23 11:52:30;;;;;;;28.95;16.23;;;;;;;8.71;57.26;93176.94;5049920;28;20493;-34
2022/12/23 11:54:58;;;;;;;25.13;16.23;;;;;;;8.74;56.80;93184.13;5051534;28;20033;-35
2022/12/23 11:57:44;;;;;;;28.27;16.70;;;;;;;8.60;56.55;93169.72;5050967;28;20113;-35
2022/12/23 12:00:20;;;;;;;28.70;17.17;;;;;;;8.72;57.46;93184.66;5058815;28;20052;-35
2022/12/23 12:02:48;;;;;;;31.42;18.23;;;;;;;8.69;56.93;93177.50;5071002;28;20416;-35
2022/12/23 12:05:26;;;;;;;27.02;15.32;;;;;;;8.45;56.53;93177.91;5070804;28;20511;-35
2022/12/23 12:07:55;;;;;;;38.92;16.38;;;;;;;8.40;56.41;93176.78;5069840;28;20054;-35
2022/12/23 12:10:25;;;;;;;27.85;16.27;;;;;;;8.35;56.64;93179.69;5069549;28;20082;-34
2022/12/23 12:12:55;;;;;;;30.38;16.35;;;;;;;8.33;57.17;93182.25;5070517;28;20031;-35
2022/12/23 12:15:45;;;;;;;26.63;16.60;;;;;;;8.32;57.89;93181.50;5071184;28;20032;-34
2022/12/23 12:18:14;;;;;;;32.20;16.65;;;;;;;8.36;58.42;93192.16;5069354;28;20039;-35
2022/12/23 12:20:45;;;;;;;33.90;17.42;;;;;;;8.22;58.39;93175.00;5052571;28;20036;-35
2022/12/23 12:23:19;;;;;;;29.08;14.43;;;;;;;8.30;58.55;93189.56;5052735;28;20520;-35
2022/12/23 12:25:55;;;;;;;31.85;15.95;;;;;;;8.23;58.63;93186.72;5083356;28;20046;-34
2022/12/23 12:28:29;;;;;;;22.92;14.32;;;;;;;8.18;58.93;93188.34;5072589;28;20028;-34
2022/12/23 12:31:01;;;;;;;113.53;47.88;;;;;;;7.95;59.16;93186.72;5090647;28;20592;-34
2022/12/23 12:33:33;;;;;;;48.80;26.70;;;;;;;7.93;59.93;93181.72;5090599;28;20024;-35
2022/12/23 12:36:36;;;;;;;129.20;71.00;;;;;;;7.74;59.88;93175.72;5090468;28;20020;-34
2022/12/23 12:39:01;;;;;;;71.60;37.03;;;;;;;7.72;60.90;93180.28;5090373;28;20031;-35
2022/12/23 12:41:32;;;;;;;64.00;29.23;;;;;;;7.74;61.43;93183.97;5090381;28;20035;-35
2022/12/23 12:44:14;;;;;;;65.72;30.83;;;;;;;7.68;61.72;93175.13;5072521;28;20032;-35
2022/12/23 12:46:45;;;;;;;36.10;21.75;;;;;;;7.57;61.43;93169.88;5090721;28;20050;-35
2022/12/23 12:49:17;;;;;;;40.80;24.17;;;;;;;7.54;61.59;93176.44;5090414;28;20020;-35
2022/12/23 12:52:03;;;;;;;35.30;20.52;;;;;;;7.60;61.63;93172.28;5090668;28;20035;-34
2022/12/23 12:54:38;;;;;;;32.75;19.02;;;;;;;7.60;62.13;93175.03;5072549;28;20131;-35
2022/12/23 12:57:04;;;;;;;47.42;24.55;;;;;;;7.53;62.43;93172.97;5090298;28;20035;-35
2022/12/23 12:59:37;;;;;;;36.40;20.00;;;;;;;7.38;62.48;93150.13;5090055;28;20020;-35
2022/12/23 13:02:36;;;;;;;34.08;18.30;;;;;;;7.50;62.99;93176.03;5090205;28;20032;-35
2022/12/23 13:05:27;;;;;;;25.92;16.13;;;;;;;7.48;63.66;93181.34;5090250;28;20523;-35
2022/12/23 13:07:53;;;;;;;28.00;17.08;;;;;;;7.32;64.23;93179.72;5090095;28;20063;-35
2022/12/23 13:10:39;;;;;;;28.23;18.02;;;;;;;7.32;64.09;93182.47;5090142;28;20059;-35
2022/12/23 13:13:42;;;;;;;26.73;16.13;;;;;;;7.38;64.00;93181.09;5090009;28;20057;-35
2022/12/23 13:16:14;;;;;;;28.25;17.10;;;;;;;7.33;64.35;93173.69;5090044;28;20027;-35
2022/12/23 13:19:11;;;;;;;25.42;15.98;;;;;;;7.11;65.58;93176.94;5072354;28;20107;-35
2022/12/23 13:22:03;;;;;;;33.72;20.77;;;;;;;7.11;66.12;93179.69;5090313;28;20032;-35
2022/12/23 13:24:51;;;;;;;38.17;23.10;;;;;;;7.04;66.24;93185.81;5072294;28;20035;-35
2022/12/23 13:27:21;;;;;;;36.80;23.98;;;;;;;7.16;65.96;93176.09;5069865;28;20028;-34
2022/12/23 13:29:55;;;;;;;35.17;17.85;;;;;;;7.23;66.26;93178.19;5086133;28;20051;-34
2022/12/23 13:32:41;;;;;;;28.67;15.63;;;;;;;7.27;65.31;93175.09;5090039;28;20020;-35
2022/12/23 13:35:21;;;;;;;37.72;16.33;;;;;;;7.35;65.47;93178.66;5089996;28;20123;-35
2022/12/23 13:38:03;;;;;;;38.55;15.57;;;;;;;7.40;65.90;93170.28;5089999;28;20176;-35
2022/12/23 13:40:37;;;;;;;26.00;16.20;;;;;;;7.50;66.37;93173.31;5089953;28;20081;-34
2022/12/23 13:43:14;;;;;;;29.02;17.83;;;;;;;7.58;66.48;93174.84;5072179;28;20032;-35
2022/12/23 13:45:40;;;;;;;34.97;21.73;;;;;;;7.54;66.25;93170.94;5072510;28;20034;-34
2022/12/23 13:48:16;;;;;;;35.20;18.85;;;;;;;7.52;66.38;93174.25;5075557;28;20114;-34
2022/12/23 13:50:51;;;;;;;23.50;16.35;;;;;;;7.53;65.97;93175.00;5093588;28;20085;-34
2022/12/23 13:53:38;;;;;;;47.20;26.30;;;;;;;7.46;66.14;93172.91;5093636;28;20077;-35
2022/12/23 13:56:31;;;;;;;63.22;34.25;;;;;;;7.40;65.30;93166.81;5093464;28;20028;-34
2022/12/23 13:58:57;;;;;;;48.95;31.15;;;;;;;7.33;64.65;93178.44;5093353;28;20412;-34
2022/12/23 14:01:35;;;;;;;46.58;26.80;;;;;;;7.17;64.80;93183.03;5075225;28;20044;-34
2022/12/23 14:04:35;;;;;;;52.78;26.63;;;;;;;7.07;65.25;93178.53;5093452;28;20047;-35
2022/12/23 14:07:25;;;;;;;45.53;25.63;;;;;;;6.98;65.08;93178.97;5093595;28;20024;-35
2022/12/23 14:09:54;;;;;;;30.15;19.48;;;;;;;6.87;65.55;93179.97;5093098;28;20579;-34
2022/12/23 14:12:27;;;;;;;30.65;19.30;;;;;;;6.80;66.18;93181.34;5075284;28;20476;-34
2022/12/23 14:15:20;;;;;;;53.95;29.70;;;;;;;6.59;66.97;93174.31;5093224;28;20114;-34
2022/12/23 14:18:11;;;;;;;50.28;26.10;;;;;;;6.33;67.90;93180.56;5093420;28;20043;-34
2022/12/23 14:21:15;;;;;;;48.50;26.80;;;;;;;6.21;68.49;93184.03;5092904;28;20024;-35
2022/12/23 14:23:59;;;;;;;30.45;17.08;;;;;;;6.13;68.44;93188.69;5051396;28;20063;-34
2022/12/23 14:26:37;;;;;;;26.02;16.00;;;;;;;6.11;68.28;93184.44;5074871;28;20032;-34
2022/12/23 14:29:14;;;;;;;24.02;14.05;;;;;;;5.94;68.41;93186.00;5074922;28;20034;-34
2022/12/23 14:31:54;;;;;;;22.73;13.65;;;;;;;5.70;68.93;93170.44;5093096;28;20081;-34
2022/12/23 14:34:19;;;;;;;22.70;13.88;;;;;;;5.57;68.75;93181.38;5092800;28;20024;-35
2022/12/23 14:37:24;;;;;;;23.20;13.43;;;;;;;5.46;69.55;93178.09;5092551;28;20154;-34
2022/12/23 14:39:51;;;;;;;20.33;13.48;;;;;;;5.48;69.90;93176.28;5092624;28;20119;-35
2022/12/23 14:42:35;;;;;;;22.13;13.20;;;;;;;5.12;70.25;93169.66;5092533;28;20035;-34
2022/12/23 14:45:33;;;;;;;27.10;14.18;;;;;;;4.89;70.73;93184.91;5074452;28;20036;-35
2022/12/23 14:47:59;;;;;;;32.40;18.23;;;;;;;4.69;72.68;93179.94;5092529;28;20527;-35
2022/12/23 14:50:42;;;;;;;28.05;15.85;;;;;;;4.37;72.82;93199.75;5074390;28;20032;-34
2022/12/23 14:53:24;;;;;;;22.15;13.63;;;;;;;4.33;72.44;93204.72;5074165;28;20020;-35
2022/12/23 14:56:09;;;;;;;32.03;16.00;;;;;;;3.97;74.13;93206.13;5074328;28;20059;-35
2022/12/23 14:59:14;;;;;;;30.20;16.23;;;;;;;3.69;75.52;93205.63;5089506;28;20082;-35
2022/12/23 15:01:50;;;;;;;26.13;14.35;;;;;;;3.63;75.49;93210.41;5049942;28;20566;-35
2022/12/23 15:04:29;;;;;;;26.70;14.95;;;;;;;3.62;75.00;93214.38;5054479;28;20431;-35
2022/12/23 15:07:03;;;;;;;20.88;13.13;;;;;;;3.38;75.38;93217.09;5059172;28;20032;-34
2022/12/23 15:09:37;;;;;;;35.45;13.30;;;;;;;3.53;74.94;93217.47;5080371;28;20024;-34
2022/12/23 15:12:36;;;;;;;23.45;13.50;;;;;;;3.40;75.97;93220.03;5064225;28;20024;-34
2022/12/23 15:15:19;;;;;;;29.30;12.77;;;;;;;3.06;76.02;93214.06;5079051;28;20032;-34
2022/12/23 15:17:45;;;;;;;30.45;14.57;;;;;;;2.94;77.19;93207.97;5080955;28;20040;-35
2022/12/23 15:20:23;;;;;;;29.33;14.45;;;;;;;2.86;76.43;93217.91;5061477;28;20494;-35
2022/12/23 15:22:49;;;;;;;31.38;14.45;;;;;;;2.93;75.85;93214.66;5078209;28;20028;-35
2022/12/23 15:25:21;;;;;;;23.25;14.35;;;;;;;2.95;75.53;93205.94;5078914;28;20028;-34
2022/12/23 15:27:47;;;;;;;25.88;13.32;;;;;;;2.70;75.88;93213.31;5078702;28;20039;-34
2022/12/23 15:30:14;;;;;;;28.80;14.38;;;;;;;2.58;75.85;93220.03;5078803;28;20047;-34
2022/12/23 15:32:42;;;;;;;38.10;20.35;;;;;;;2.43;75.91;93194.34;5080270;28;20023;-34
2022/12/23 15:35:19;;;;;;;55.88;26.23;;;;;;;2.66;76.38;93215.56;5061580;28;20500;-34
2022/12/23 15:37:48;;;;;;;72.05;34.78;;;;;;;2.66;76.82;93212.84;5078239;28;20027;-35
2022/12/23 15:40:40;;;;;;;64.38;30.52;;;;;;;2.64;76.58;93225.47;5069302;28;20553;-34
2022/12/23 15:43:17;;;;;;;56.55;31.38;;;;;;;2.41;77.96;93221.34;5078026;28;20028;-34
2022/12/23 15:45:42;;;;;;;69.07;30.45;;;;;;;2.37;78.04;93231.78;5089707;28;20766;-34
2022/12/23 15:48:31;;;;;;;53.80;28.65;;;;;;;2.08;78.09;93227.66;5087849;28;20107;-34
2022/12/23 15:51:13;;;;;;;53.40;26.45;;;;;;;2.02;78.58;93230.38;5053785;28;20275;-34
2022/12/23 15:53:41;;;;;;;62.30;29.73;;;;;;;2.01;79.42;93236.34;5069591;28;20040;-34
2022/12/23 15:56:10;;;;;;;63.45;33.88;;;;;;;1.94;79.57;93240.31;5067977;28;20019;-34
2022/12/23 15:58:38;;;;;;;61.22;31.27;;;;;;;1.90;79.81;93239.09;5084259;28;20036;-34
2022/12/23 16:01:04;;;;;;;59.63;31.13;;;;;;;1.67;79.77;93243.09;5057134;28;20511;-34
2022/12/23 16:03:33;;;;;;;59.05;29.88;;;;;;;1.67;79.50;93234.91;5074610;28;20093;-34
2022/12/23 16:06:27;;;;;;;61.95;30.92;;;;;;;1.65;80.33;93237.38;5059258;28;20054;-34
2022/12/23 16:09:08;;;;;;;49.70;26.10;;;;;;;1.68;79.78;93250.75;5075640;28;20051;-34
2022/12/23 16:11:55;;;;;;;66.18;30.05;;;;;;;1.72;79.00;93250.47;5058168;28;20028;-34
2022/12/23 16:14:29;;;;;;;54.72;29.10;;;;;;;1.62;79.41;93252.00;5063402;28;20082;-34
2022/12/23 16:17:07;;;;;;;57.15;28.63;;;;;;;1.61;78.95;93258.66;5070632;28;20043;-34
2022/12/23 16:19:42;;;;;;;55.10;29.48;;;;;;;1.57;78.70;93250.00;5074563;28;20050;-34
2022/12/23 16:22:19;;;;;;;67.80;32.42;;;;;;;1.39;78.68;93257.41;5086045;28;20543;-34
2022/12/23 16:25:10;;;;;;;55.22;27.50;;;;;;;1.24;80.57;93250.72;5080391;28;20032;-34
2022/12/23 16:27:38;;;;;;;55.20;26.67;;;;;;;1.23;80.01;93247.28;5070985;28;20433;-34
2022/12/23 16:30:13;;;;;;;56.05;29.08;;;;;;;1.33;80.25;93259.41;5061006;28;20024;-35
2022/12/23 16:32:55;;;;;;;105.30;51.85;;;;;;;1.32;81.04;93254.47;5087552;28;20031;-35
2022/12/23 16:35:41;;;;;;;78.65;39.90;;;;;;;1.28;81.54;93257.41;5070540;28;20028;-34
2022/12/23 16:38:16;;;;;;;74.90;40.25;;;;;;;1.35;80.88;93248.78;5070363;28;20115;-34
2022/12/23 16:40:45;;;;;;;76.28;38.40;;;;;;;1.19;80.98;93248.78;5071269;28;20131;-35
2022/12/23 16:43:11;;;;;;;73.82;39.10;;;;;;;1.37;80.64;93265.34;5087181;28;20038;-35
2022/12/23 16:45:37;;;;;;;74.68;38.97;;;;;;;1.33;79.98;93262.13;5086718;28;20062;-34
2022/12/23 16:48:10;;;;;;;77.20;40.50;;;;;;;1.31;80.18;93267.31;5091002;28;20036;-35
2022/12/23 16:50:36;;;;;;;80.40;43.08;;;;;;;1.32;80.62;93268.06;5081313;28;20032;-34
2022/12/23 16:53:02;;;;;;;80.25;43.63;;;;;;;1.45;80.28;93277.19;5083580;28;20035;-34
2022/12/23 16:55:27;;;;;;;83.10;45.08;;;;;;;1.47;80.01;93269.28;5083875;28;20097;-34
2022/12/23 16:57:52;;;;;;;90.78;44.65;;;;;;;1.58;79.75;93275.97;5060675;28;20036;-34
2022/12/23 17:00:18;;;;;;;88.95;47.40;;;;;;;1.59;79.83;93259.16;5077743;28;20087;-34
2022/12/23 17:02:45;;;;;;;82.28;45.05;;;;;;;1.60;80.11;93271.53;5077203;28;20029;-34
2022/12/23 17:05:19;;;;;;;83.30;47.63;;;;;;;1.19;80.94;93233.19;5060287;28;20020;-34
2022/12/23 17:07:45;;;;;;;78.50;40.55;;;;;;;1.57;81.35;93275.22;5079559;28;20509;-34
2022/12/23 17:10:11;;;;;;;66.85;36.47;;;;;;;1.49;79.84;93266.81;5078542;28;20035;-34
2022/12/23 17:12:37;;;;;;;65.13;38.92;;;;;;;1.65;79.55;93273.50;5078812;28;20050;-35
2022/12/23 17:15:04;;;;;;;75.43;40.85;;;;;;;1.61;79.60;93273.00;5093846;28;20028;-34
2022/12/23 17:17:29;;;;;;;66.72;38.10;;;;;;;1.76;78.70;93273.50;5086191;28;20047;-35
2022/12/23 17:19:56;;;;;;;75.53;38.58;;;;;;;1.67;78.97;93271.00;5087060;28;20043;-34
2022/12/23 17:22:22;;;;;;;77.00;42.72;;;;;;;1.46;80.45;93275.97;5101179;28;20088;-34
2022/12/23 17:24:48;;;;;;;93.90;46.00;;;;;;;1.45;80.33;93269.03;5071302;28;20035;-34
2022/12/23 17:27:15;;;;;;;113.63;55.20;;;;;;;1.63;79.57;93264.34;5089798;28;20474;-34
2022/12/23 17:29:41;;;;;;;102.38;54.83;;;;;;;1.59;79.58;93266.56;5090231;28;20595;-34
2022/12/23 17:32:10;;;;;;;93.90;53.40;;;;;;;1.49;79.94;93268.81;5095445;28;20027;-34
2022/12/23 17:34:36;;;;;;;106.18;54.28;;;;;;;1.47;80.08;93274.00;5099236;28;20020;-35
2022/12/23 17:37:01;;;;;;;104.55;55.85;;;;;;;1.57;80.06;93264.34;5094687;28;20051;-34
2022/12/23 17:39:27;;;;;;;94.55;54.65;;;;;;;1.50;80.36;93257.44;5090591;28;20035;-34
2022/12/23 17:41:52;;;;;;;87.43;50.05;;;;;;;1.41;79.84;93259.63;5090979;28;20105;-35
2022/12/23 17:44:18;;;;;;;111.57;55.33;;;;;;;1.19;80.77;93254.22;5072968;28;20039;-35
2022/12/23 17:46:44;;;;;;;88.93;48.30;;;;;;;1.21;80.95;93265.34;5092443;28;20052;-34
2022/12/23 17:49:10;;;;;;;100.50;50.08;;;;;;;1.33;80.75;93264.09;5091133;28;20016;-34
2022/12/23 17:51:38;;;;;;;116.88;56.45;;;;;;;1.29;80.60;93263.59;5090914;28;20032;-34
2022/12/23 17:54:05;;;;;;;115.50;55.70;;;;;;;1.28;81.25;93259.38;5072440;28;20027;-34
2022/12/23 17:56:31;;;;;;;94.40;53.45;;;;;;;1.20;81.04;93261.13;5091201;28;20031;-35
2022/12/23 17:58:56;;;;;;;100.03;51.85;;;;;;;1.21;81.27;93255.19;5090588;28;20472;-34
2022/12/23 18:01:25;;;;;;;103.70;54.08;;;;;;;1.22;80.76;93251.22;5090314;28;20056;-35
2022/12/23 18:03:51;;;;;;;91.63;53.58;;;;;;;1.16;80.92;93247.03;5090360;28;20027;-34
2022/12/23 18:06:19;;;;;;;95.65;54.20;;;;;;;1.10;81.35;93232.69;5090718;28;20020;-35
2022/12/23 18:08:44;;;;;;;79.15;44.25;;;;;;;1.09;80.84;93242.81;5090713;28;20144;-35
2022/12/23 18:11:31;;;;;;;72.68;39.55;;;;;;;1.19;80.58;93256.94;5090981;28;20070;-35
2022/12/23 18:13:57;;;;;;;158.25;78.78;;;;;;;1.01;80.70;93255.41;5089581;28;20110;-35
2022/12/23 18:16:22;;;;;;;167.80;83.78;;;;;;;0.93;81.10;93272.69;5090585;28;20036;-35
2022/12/23 18:18:48;;;;;;;150.18;78.78;;;;;;;0.93;81.38;93265.28;5090249;28;20032;-34
2022/12/23 18:21:18;;;;;;;148.23;78.07;;;;;;;0.72;81.49;93264.72;5090817;28;20039;-35
2022/12/23 18:23:44;;;;;;;143.98;76.35;;;;;;;0.68;82.22;93277.06;5072727;28;20028;-35
2022/12/23 18:26:16;;;;;;;132.25;75.07;;;;;;;0.76;82.71;93280.78;5078613;28;20550;-35
2022/12/23 18:28:43;;;;;;;137.10;75.78;;;;;;;0.67;83.10;93279.03;5070003;28;20029;-34
2022/12/23 18:31:15;;;;;;;134.95;71.32;;;;;;;0.66;82.51;93284.97;5082856;28;20031;-34
2022/12/23 18:33:40;;;;;;;159.07;81.40;;;;;;;0.62;82.35;93254.56;5060216;28;20146;-34
2022/12/23 18:36:17;;;;;;;116.03;68.25;;;;;;;0.87;82.60;93278.09;5056089;28;20111;-35
2022/12/23 18:38:42;;;;;;;122.68;67.70;;;;;;;0.92;83.10;93274.66;5050357;28;20054;-35
2022/12/23 18:41:11;;;;;;;126.97;67.78;;;;;;;0.99;82.64;93268.00;5082398;28;20035;-34
2022/12/23 18:43:36;;;;;;;123.80;68.70;;;;;;;0.87;83.11;93275.38;5081123;28;20032;-35
2022/12/23 18:46:01;;;;;;;124.10;68.82;;;;;;;0.96;82.37;93280.59;5080919;28;21065;-35
2022/12/23 18:48:27;;;;;;;122.07;67.57;;;;;;;0.88;81.95;93268.72;5085998;28;20415;-35
2022/12/23 18:50:52;;;;;;;123.03;71.13;;;;;;;0.87;82.20;93269.22;5083639;28;20024;-35
2022/12/23 18:53:22;;;;;;;127.35;69.13;;;;;;;0.90;80.93;93277.13;5083031;28;20497;-35
2022/12/23 18:55:48;;;;;;;126.95;68.18;;;;;;;0.80;80.75;93281.31;5076554;28;20135;-35
2022/12/23 18:58:16;;;;;;;137.75;69.07;;;;;;;0.77;80.67;93277.59;5067586;28;20114;-35
2022/12/23 19:00:42;;;;;;;133.80;70.18;;;;;;;0.59;81.85;93280.75;5084733;28;20051;-35
2022/12/23 19:03:33;;;;;;;129.10;68.97;;;;;;;0.53;81.73;93276.53;5079306;28;20027;-35
2022/12/23 19:06:05;;;;;;;123.63;63.90;;;;;;;0.49;82.37;93278.72;5078740;28;20040;-35
2022/12/23 19:08:31;;;;;;;107.90;59.30;;;;;;;0.43;82.13;93272.53;5088329;28;20183;-35
2022/12/23 19:10:57;;;;;;;116.95;59.33;;;;;;;0.30;82.90;93274.94;5082045;28;20077;-40
2022/12/23 19:13:23;;;;;;;95.70;51.30;;;;;;;0.22;82.98;93279.38;5079606;28;20052;-35
2022/12/23 19:15:49;;;;;;;93.57;52.75;;;;;;;0.12;83.43;93281.53;5074745;28;20136;-35
2022/12/23 19:18:16;;;;;;;92.70;49.58;;;;;;;0.14;83.81;93283.75;5074388;28;20028;-35
2022/12/23 19:20:43;;;;;;;87.93;48.38;;;;;;;0.01;84.09;93270.59;5077079;28;20039;-35
2022/12/23 19:23:09;;;;;;;90.00;47.78;;;;;;;0.07;84.04;93267.91;5073394;28;20028;-35
2022/12/23 19:25:40;;;;;;;84.95;45.03;;;;;;;0.00;83.30;93256.28;5071730;28;20032;-35
2022/12/23 19:28:06;;;;;;;100.50;53.10;;;;;;;0.15;83.73;93258.09;5072012;28;20042;-35
2022/12/23 19:30:31;;;;;;;106.68;54.03;;;;;;;0.17;82.80;93266.50;5068811;28;20036;-35
2022/12/23 19:32:57;;;;;;;102.43;54.35;;;;;;;0.09;83.37;93260.03;5074734;28;20034;-35
2022/12/23 19:35:22;;;;;;;92.65;52.30;;;;;;;0.15;82.83;93263.53;5070912;28;20052;-35
2022/12/23 19:37:49;;;;;;;107.13;52.58;;;;;;;0.06;82.83;93266.44;5076226;28;20039;-35
2022/12/23 19:40:14;;;;;;;93.05;52.80;;;;;;;0.10;82.96;93267.69;5076786;28;20547;-35
2022/12/23 19:42:40;;;;;;;90.90;51.05;;;;;;;-0.02;83.15;93271.56;5070647;28;20036;-35
2022/12/23 19:45:08;;;;;;;98.05;49.70;;;;;;;-0.07;83.17;93266.84;5065239;28;20639;-35
2022/12/23 19:47:33;;;;;;;95.15;48.53;;;;;;;-0.07;83.26;93259.47;5066297;28;20032;-35
2022/12/23 19:49:59;;;;;;;84.43;45.45;;;;;;;0.03;82.45;93268.13;5046524;28;20033;-35
2022/12/23 19:52:24;;;;;;;81.68;45.53;;;;;;;-0.11;83.28;93248.06;5066647;28;20028;-35
2022/12/23 19:54:52;;;;;;;70.22;38.83;;;;;;;-0.13;82.69;93266.09;5067670;28;20085;-35
2022/12/23 19:57:17;;;;;;;86.78;44.88;;;;;;;-0.16;82.76;93273.22;5049259;28;20032;-34
2022/12/23 19:59:43;;;;;;;76.18;39.28;;;;;;;-0.06;82.20;93265.63;5075860;28;20050;-35
2022/12/23 20:02:18;;;;;;;93.93;46.13;;;;;;;-0.11;82.05;93250.78;5071667;28;20028;-34
2022/12/23 20:04:44;;;;;;;95.57;51.20;;;;;;;-0.07;82.09;93267.59;5068844;28;20061;-34
2022/12/23 20:07:10;;;;;;;108.53;57.33;;;;;;;-0.03;82.62;93264.66;5072721;28;20029;-35
2022/12/23 20:09:35;;;;;;;102.88;54.67;;;;;;;0.07;82.12;93265.19;5072281;28;20086;-34
2022/12/23 20:12:01;;;;;;;121.20;64.45;;;;;;;-0.07;81.68;93264.91;5072995;28;20090;-34
2022/12/23 20:14:26;;;;;;;110.25;57.83;;;;;;;-0.08;82.06;93263.41;5072240;28;20031;-34
2022/12/23 20:16:52;;;;;;;106.85;61.90;;;;;;;-0.50;83.15;93247.09;5072780;28;20151;-34
2022/12/23 20:19:17;;;;;;;108.00;61.38;;;;;;;-0.33;83.30;93266.19;5070266;28;20390;-34
2022/12/23 20:21:45;;;;;;;111.93;57.35;;;;;;;-0.50;83.87;93260.66;5072065;28;20036;-35
2022/12/23 20:24:12;;;;;;;94.80;48.75;;;;;;;-0.55;84.94;93264.06;5072062;28;20111;-35
2022/12/23 20:26:38;;;;;;;80.10;41.42;;;;;;;-0.55;84.88;93276.88;5074774;28;20107;-35
2022/12/23 20:29:03;;;;;;;69.15;38.90;;;;;;;-0.50;84.26;93268.81;5073262;28;20457;-34
2022/12/23 20:31:31;;;;;;;73.70;39.10;;;;;;;-0.44;83.84;93275.00;5076385;28;20059;-34
2022/12/23 20:33:57;;;;;;;79.25;44.58;;;;;;;-0.40;83.38;93275.53;5070797;28;20101;-35
2022/12/23 20:36:27;;;;;;;75.50;42.88;;;;;;;-0.50;83.60;93270.75;5071345;28;20040;-34
2022/12/23 20:38:53;;;;;;;71.78;37.75;;;;;;;-0.61;83.95;93279.56;5053671;28;20437;-34
2022/12/23 20:41:21;;;;;;;61.53;34.72;;;;;;;-0.56;83.83;93278.13;5071409;28;20046;-34
2022/12/23 20:43:47;;;;;;;47.38;26.65;;;;;;;-0.49;83.76;93288.50;5074747;28;21222;-35
2022/12/23 20:46:13;;;;;;;50.58;27.73;;;;;;;-0.47;82.74;93286.81;5076046;28;20043;-34
2022/12/23 20:48:40;;;;;;;52.22;30.75;;;;;;;-0.77;82.90;93253.78;5073242;28;20067;-34